Terminal Aerodrome Forecast
Issued by NWS Charleston, WV

Home | Current Version | Previous Version | Text Only | Print | Product List | Glossary On
Versions: 1 2 3 4 5 6 7 8 9 10 11 12 13 14 15 16 17 18 19 20 21 22 23 24 25 26 27
000
FTUS41 KRLX 222100 AAB
TAFHTS
TAF AMD
KHTS 222107Z 2221/2318 21005KT 6SM BR VCTS BKN025CB OVC035
     FM230000 00000KT P6SM VCTS BKN035CB
      TEMPO 2300/2303 2SM -SHRA BKN025
     FM230300 VRB03KT 6SM BR BKN030
     FM230800 VRB03KT 4SM BR BKN025
     FM231300 00000KT 6SM BR BKN010 BKN022=

USA.gov is the U.S. government's official web portal to all federal, state and local government web resources and services.